Aeroporto :
LOGIN :

Iscrizione | Disclaimer

   EN    FR    IT 

 










Sommario :    VFR   VFR Marginale   IFR   IFR Intensivo   IFR Molto Intensivo
Visibilità : 
Base nubi : 
>= 8 km
>= 3000ft
5 / 8 km
1000 / 3000 ft
1500m / 5 km
500 / 1000 ft
800 / 1500m
200 / 500 ft
< 800m
< 200 ft
Simboli :   Temporali  Nebbia  Neve Forte  Precipitazioni Forti  Vento > 20 kt
SIGMETs :   Varie  Temporali  Ghiacco  Turbolenza  Onda orograficha  Ceneri Vulcaniche






- Altitudine del aeroporto : 604 ft
- Codice IATA : LCJ


EPLL - Lodz

ULTIMO METAR :
  • 020700Z 09007KT 060V120 7000 NSC 06/05 Q1011

METARs OBSOLETI :
  • 020630Z 09006KT 7000 NSC 06/05 Q1011
  • 020600Z 10005KT 8000 NSC 06/05 Q1010
  • 020530Z 09005KT 9000 NSC 06/05 Q1010
  • 020500Z 09005KT 9000 NSC 06/05 Q1010
  • 020430Z 09006KT 9000 NSC 06/05 Q1010
  • 012100Z 10006KT 070V150 4000 -RA BR FEW007 BKN047 07/06 Q1011
  • 020400Z 09006KT 9000 BKN046 06/05 Q1010
  • 020330Z 10006KT 9000 NSC 06/05 Q1010
  • 020300Z 09006KT 9000 SCT048 06/05 Q1010
  • 020230Z 10005KT 070V140 9000 BKN043 07/05 Q1010

TAF TAF EPLL
Valido dal 02 a 06 ore il 03 a 06 ore UTC


020530Z 0206/0306 10007KT CAVOK
PROB30
TEMPO 0213/0217 FEW040TCU
PROB40
TEMPO 0300/0306 BKN006



MetMap, La meteo Aeronautica in un colpo d'occhio ! - Copyright ORBIFLY Dicembre 2007 - Disclaimer

ORBIFLY MET'MAP TEAM :

Programmazione e sviluppo : Alexandra Zaïnal
Concezione : Baudouin d'Aumeries
Supporto tecnico e logistico : Manuel Goepfert
Aiuto : Marc-Olivier Méhu
Aiuto per la traduzione : Arnaldo La Scala




FONTI E CREDITI :

   NOAA